sensor_id;sensor_type;location;lat;lon;timestamp;temperature;humidity
6110;DHT22;3085;49.444;11.054;2024-02-04T00:01:18;8.10;99.90
6110;DHT22;3085;49.444;11.054;2024-02-04T00:03:45;8.10;99.90
6110;DHT22;3085;49.444;11.054;2024-02-04T00:06:12;8.10;99.90
6110;DHT22;3085;49.444;11.054;2024-02-04T00:08:38;8.10;99.90
6110;DHT22;3085;49.444;11.054;2024-02-04T00:11:05;8.10;99.90
6110;DHT22;3085;49.444;11.054;2024-02-04T00:13:34;8.10;99.90
6110;DHT22;3085;49.444;11.054;2024-02-04T00:16:00;8.10;99.90
6110;DHT22;3085;49.444;11.054;2024-02-04T00:18:28;8.10;99.90
6110;DHT22;3085;49.444;11.054;2024-02-04T00:20:55;8.10;99.90
6110;DHT22;3085;49.444;11.054;2024-02-04T00:23:21;8.10;99.90
6110;DHT22;3085;49.444;11.054;2024-02-04T00:25:48;8.10;99.90
6110;DHT22;3085;49.444;11.054;2024-02-04T00:28:15;8.10;99.90
6110;DHT22;3085;49.444;11.054;2024-02-04T00:30:41;8.10;99.90
6110;DHT22;3085;49.444;11.054;2024-02-04T00:33:08;8.10;99.90
6110;DHT22;3085;49.444;11.054;2024-02-04T00:35:36;8.10;99.90
6110;DHT22;3085;49.444;11.054;2024-02-04T00:38:03;8.10;99.90
6110;DHT22;3085;49.444;11.054;2024-02-04T00:40:30;8.10;99.90
6110;DHT22;3085;49.444;11.054;2024-02-04T00:42:57;8.10;99.90
6110;DHT22;3085;49.444;11.054;2024-02-04T00:45:23;8.10;99.90
6110;DHT22;3085;49.444;11.054;2024-02-04T00:47:50;8.10;99.90
6110;DHT22;3085;49.444;11.054;2024-02-04T00:50:17;8.10;99.90
6110;DHT22;3085;49.444;11.054;2024-02-04T00:52:45;8.10;99.90
6110;DHT22;3085;49.444;11.054;2024-02-04T00:55:11;8.10;99.90
6110;DHT22;3085;49.444;11.054;2024-02-04T00:57:38;8.10;99.90
6110;DHT22;3085;49.444;11.054;2024-02-04T01:00:07;8.10;99.90
6110;DHT22;3085;49.444;11.054;2024-02-04T01:02:34;8.10;99.90
6110;DHT22;3085;49.444;11.054;2024-02-04T01:05:01;8.10;99.90
6110;DHT22;3085;49.444;11.054;2024-02-04T01:07:28;8.00;99.90
6110;DHT22;3085;49.444;11.054;2024-02-04T01:09:56;8.00;99.90
6110;DHT22;3085;49.444;11.054;2024-02-04T01:12:23;8.00;99.90
6110;DHT22;3085;49.444;11.054;2024-02-04T01:14:49;8.00;99.90
6110;DHT22;3085;49.444;11.054;2024-02-04T01:17:16;8.10;99.90
6110;DHT22;3085;49.444;11.054;2024-02-04T01:19:43;8.10;99.90
6110;DHT22;3085;49.444;11.054;2024-02-04T01:22:09;8.10;99.90
6110;DHT22;3085;49.444;11.054;2024-02-04T01:24:36;8.00;99.90
6110;DHT22;3085;49.444;11.054;2024-02-04T01:27:04;8.00;99.90
6110;DHT22;3085;49.444;11.054;2024-02-04T01:29:31;8.00;99.90
6110;DHT22;3085;49.444;11.054;2024-02-04T01:31:57;8.00;99.90
6110;DHT22;3085;49.444;11.054;2024-02-04T01:34:24;7.90;99.90
6110;DHT22;3085;49.444;11.054;2024-02-04T01:36:51;8.00;99.90
6110;DHT22;3085;49.444;11.054;2024-02-04T01:39:17;8.00;99.90
6110;DHT22;3085;49.444;11.054;2024-02-04T01:41:44;7.90;99.90
6110;DHT22;3085;49.444;11.054;2024-02-04T01:44:12;7.90;99.90
6110;DHT22;3085;49.444;11.054;2024-02-04T01:46:39;7.90;99.90
6110;DHT22;3085;49.444;11.054;2024-02-04T01:49:07;7.90;99.90
6110;DHT22;3085;49.444;11.054;2024-02-04T01:51:34;7.90;99.90
6110;DHT22;3085;49.444;11.054;2024-02-04T01:54:01;7.90;99.90
6110;DHT22;3085;49.444;11.054;2024-02-04T01:56:28;7.90;99.90
6110;DHT22;3085;49.444;11.054;2024-02-04T01:58:56;7.90;99.90
6110;DHT22;3085;49.444;11.054;2024-02-04T02:01:24;7.90;99.90
6110;DHT22;3085;49.444;11.054;2024-02-04T02:03:51;7.90;99.90
6110;DHT22;3085;49.444;11.054;2024-02-04T02:06:18;7.90;99.90
6110;DHT22;3085;49.444;11.054;2024-02-04T02:08:46;7.90;99.90
6110;DHT22;3085;49.444;11.054;2024-02-04T02:11:19;7.90;99.90
6110;DHT22;3085;49.444;11.054;2024-02-04T02:13:50;7.80;99.90
6110;DHT22;3085;49.444;11.054;2024-02-04T02:16:21;7.50;99.90
6110;DHT22;3085;49.444;11.054;2024-02-04T02:18:53;7.90;99.90
6110;DHT22;3085;49.444;11.054;2024-02-04T02:21:30;7.90;99.90
6110;DHT22;3085;49.444;11.054;2024-02-04T02:24:07;7.90;99.90
6110;DHT22;3085;49.444;11.054;2024-02-04T02:26:38;7.90;99.90
6110;DHT22;3085;49.444;11.054;2024-02-04T02:29:04;7.90;99.90
6110;DHT22;3085;49.444;11.054;2024-02-04T02:31:33;7.90;99.90
6110;DHT22;3085;49.444;11.054;2024-02-04T02:34:00;7.90;99.90
6110;DHT22;3085;49.444;11.054;2024-02-04T02:36:29;7.90;99.90
6110;DHT22;3085;49.444;11.054;2024-02-04T02:39:02;7.80;99.90
6110;DHT22;3085;49.444;11.054;2024-02-04T02:41:34;7.90;99.90
6110;DHT22;3085;49.444;11.054;2024-02-04T02:44:04;7.90;99.90
6110;DHT22;3085;49.444;11.054;2024-02-04T02:46:31;7.90;99.90
6110;DHT22;3085;49.444;11.054;2024-02-04T02:48:58;7.90;99.90
6110;DHT22;3085;49.444;11.054;2024-02-04T02:51:25;7.90;99.90
6110;DHT22;3085;49.444;11.054;2024-02-04T02:53:52;7.90;99.90
6110;DHT22;3085;49.444;11.054;2024-02-04T02:56:18;7.90;99.90
6110;DHT22;3085;49.444;11.054;2024-02-04T02:58:45;7.90;99.90
6110;DHT22;3085;49.444;11.054;2024-02-04T03:01:13;8.00;99.90
6110;DHT22;3085;49.444;11.054;2024-02-04T03:03:39;8.00;99.90
6110;DHT22;3085;49.444;11.054;2024-02-04T03:06:06;8.00;99.90
6110;DHT22;3085;49.444;11.054;2024-02-04T03:08:33;7.90;99.90
6110;DHT22;3085;49.444;11.054;2024-02-04T03:11:00;7.90;99.90
6110;DHT22;3085;49.444;11.054;2024-02-04T03:13:26;7.90;99.90
6110;DHT22;3085;49.444;11.054;2024-02-04T03:15:53;7.90;99.90
6110;DHT22;3085;49.444;11.054;2024-02-04T03:18:21;7.90;99.90
6110;DHT22;3085;49.444;11.054;2024-02-04T03:20:46;7.90;99.90
6110;DHT22;3085;49.444;11.054;2024-02-04T03:23:13;7.90;99.90
6110;DHT22;3085;49.444;11.054;2024-02-04T03:25:40;7.90;99.90
6110;DHT22;3085;49.444;11.054;2024-02-04T03:28:07;7.90;99.90
6110;DHT22;3085;49.444;11.054;2024-02-04T03:30:33;7.90;99.90
6110;DHT22;3085;49.444;11.054;2024-02-04T03:33:00;7.90;99.90
6110;DHT22;3085;49.444;11.054;2024-02-04T03:35:28;7.90;99.90
6110;DHT22;3085;49.444;11.054;2024-02-04T03:37:54;7.90;99.90
6110;DHT22;3085;49.444;11.054;2024-02-04T03:40:21;7.90;99.90
6110;DHT22;3085;49.444;11.054;2024-02-04T03:42:50;7.90;99.90
6110;DHT22;3085;49.444;11.054;2024-02-04T03:45:16;7.90;99.90
6110;DHT22;3085;49.444;11.054;2024-02-04T03:47:43;8.00;99.90
6110;DHT22;3085;49.444;11.054;2024-02-04T03:50:10;7.90;99.90
6110;DHT22;3085;49.444;11.054;2024-02-04T03:52:38;7.90;99.90
6110;DHT22;3085;49.444;11.054;2024-02-04T03:55:05;7.90;99.90
6110;DHT22;3085;49.444;11.054;2024-02-04T03:57:32;7.90;99.90
6110;DHT22;3085;49.444;11.054;2024-02-04T03:59:59;7.90;99.90
6110;DHT22;3085;49.444;11.054;2024-02-04T04:02:25;7.90;99.90
6110;DHT22;3085;49.444;11.054;2024-02-04T04:04:51;7.90;99.90
6110;DHT22;3085;49.444;11.054;2024-02-04T04:07:18;7.90;99.90
6110;DHT22;3085;49.444;11.054;2024-02-04T04:09:46;7.90;99.90
6110;DHT22;3085;49.444;11.054;2024-02-04T04:12:12;7.90;99.90
6110;DHT22;3085;49.444;11.054;2024-02-04T04:14:39;7.90;99.90
6110;DHT22;3085;49.444;11.054;2024-02-04T04:17:06;7.90;99.90
6110;DHT22;3085;49.444;11.054;2024-02-04T04:19:32;7.90;99.90
6110;DHT22;3085;49.444;11.054;2024-02-04T04:22:01;7.80;99.90
6110;DHT22;3085;49.444;11.054;2024-02-04T04:24:28;7.90;99.90
6110;DHT22;3085;49.444;11.054;2024-02-04T04:26:56;7.80;99.90
6110;DHT22;3085;49.444;11.054;2024-02-04T04:29:23;7.80;99.90
6110;DHT22;3085;49.444;11.054;2024-02-04T04:31:50;7.80;99.90
6110;DHT22;3085;49.444;11.054;2024-02-04T04:34:17;7.80;99.90
6110;DHT22;3085;49.444;11.054;2024-02-04T04:36:45;7.80;99.90
6110;DHT22;3085;49.444;11.054;2024-02-04T04:39:11;7.80;99.90
6110;DHT22;3085;49.444;11.054;2024-02-04T04:41:39;7.80;99.90
6110;DHT22;3085;49.444;11.054;2024-02-04T04:44:07;7.70;99.90
6110;DHT22;3085;49.444;11.054;2024-02-04T04:46:37;7.70;99.90
6110;DHT22;3085;49.444;11.054;2024-02-04T04:49:04;7.70;99.90
6110;DHT22;3085;49.444;11.054;2024-02-04T04:51:30;7.70;99.90
6110;DHT22;3085;49.444;11.054;2024-02-04T04:53:57;7.70;99.90
6110;DHT22;3085;49.444;11.054;2024-02-04T04:56:24;7.70;99.90
6110;DHT22;3085;49.444;11.054;2024-02-04T04:58:51;7.70;99.90
6110;DHT22;3085;49.444;11.054;2024-02-04T05:01:19;7.70;99.90
6110;DHT22;3085;49.444;11.054;2024-02-04T05:03:46;7.70;99.90
6110;DHT22;3085;49.444;11.054;2024-02-04T05:06:13;7.60;99.90
6110;DHT22;3085;49.444;11.054;2024-02-04T05:08:40;7.60;99.90
6110;DHT22;3085;49.444;11.054;2024-02-04T05:11:06;7.70;99.90
6110;DHT22;3085;49.444;11.054;2024-02-04T05:13:33;7.70;99.90
6110;DHT22;3085;49.444;11.054;2024-02-04T05:16:00;7.60;99.90
6110;DHT22;3085;49.444;11.054;2024-02-04T05:18:28;7.60;99.90
6110;DHT22;3085;49.444;11.054;2024-02-04T05:20:54;7.70;99.90
6110;DHT22;3085;49.444;11.054;2024-02-04T05:23:21;7.70;99.90
6110;DHT22;3085;49.444;11.054;2024-02-04T05:25:48;7.70;99.90
6110;DHT22;3085;49.444;11.054;2024-02-04T05:28:15;7.70;99.90
6110;DHT22;3085;49.444;11.054;2024-02-04T05:30:41;7.70;99.90
6110;DHT22;3085;49.444;11.054;2024-02-04T05:33:08;7.70;99.90
6110;DHT22;3085;49.444;11.054;2024-02-04T05:35:36;7.70;99.90
6110;DHT22;3085;49.444;11.054;2024-02-04T05:38:03;7.70;99.90
6110;DHT22;3085;49.444;11.054;2024-02-04T05:40:30;7.70;99.90
6110;DHT22;3085;49.444;11.054;2024-02-04T05:42:57;7.70;99.90
6110;DHT22;3085;49.444;11.054;2024-02-04T05:45:23;7.60;99.90
6110;DHT22;3085;49.444;11.054;2024-02-04T05:47:50;7.70;99.90
6110;DHT22;3085;49.444;11.054;2024-02-04T05:50:17;7.60;99.90
6110;DHT22;3085;49.444;11.054;2024-02-04T05:52:45;7.60;99.90
6110;DHT22;3085;49.444;11.054;2024-02-04T05:55:11;7.60;99.90
6110;DHT22;3085;49.444;11.054;2024-02-04T05:57:38;7.60;99.90
6110;DHT22;3085;49.444;11.054;2024-02-04T06:00:06;7.60;99.90
6110;DHT22;3085;49.444;11.054;2024-02-04T06:02:33;7.60;99.90
6110;DHT22;3085;49.444;11.054;2024-02-04T06:04:59;7.60;99.90
6110;DHT22;3085;49.444;11.054;2024-02-04T06:07:26;7.60;99.90
6110;DHT22;3085;49.444;11.054;2024-02-04T06:09:54;7.60;99.90
6110;DHT22;3085;49.444;11.054;2024-02-04T06:12:21;7.60;99.90
6110;DHT22;3085;49.444;11.054;2024-02-04T06:14:48;7.60;99.90
6110;DHT22;3085;49.444;11.054;2024-02-04T06:17:15;7.50;99.90
6110;DHT22;3085;49.444;11.054;2024-02-04T06:19:41;7.50;99.90
6110;DHT22;3085;49.444;11.054;2024-02-04T06:22:08;7.50;99.90
6110;DHT22;3085;49.444;11.054;2024-02-04T06:24:35;7.40;99.90
6110;DHT22;3085;49.444;11.054;2024-02-04T06:27:04;7.40;99.90
6110;DHT22;3085;49.444;11.054;2024-02-04T06:29:30;7.50;99.90
6110;DHT22;3085;49.444;11.054;2024-02-04T06:31:57;7.50;99.90
6110;DHT22;3085;49.444;11.054;2024-02-04T06:34:24;7.50;99.90
6110;DHT22;3085;49.444;11.054;2024-02-04T06:36:51;7.50;99.90
6110;DHT22;3085;49.444;11.054;2024-02-04T06:39:17;7.50;99.90
6110;DHT22;3085;49.444;11.054;2024-02-04T06:41:44;7.50;99.90
6110;DHT22;3085;49.444;11.054;2024-02-04T06:44:12;7.50;99.90
6110;DHT22;3085;49.444;11.054;2024-02-04T06:46:39;7.60;99.90
6110;DHT22;3085;49.444;11.054;2024-02-04T06:49:05;7.50;99.90
6110;DHT22;3085;49.444;11.054;2024-02-04T06:51:32;7.60;99.90
6110;DHT22;3085;49.444;11.054;2024-02-04T06:53:59;7.60;99.90
6110;DHT22;3085;49.444;11.054;2024-02-04T06:56:26;7.60;99.90
6110;DHT22;3085;49.444;11.054;2024-02-04T06:58:53;7.60;99.90
6110;DHT22;3085;49.444;11.054;2024-02-04T07:01:21;7.60;99.90
6110;DHT22;3085;49.444;11.054;2024-02-04T07:03:47;7.60;99.90
6110;DHT22;3085;49.444;11.054;2024-02-04T07:06:15;7.60;99.90
6110;DHT22;3085;49.444;11.054;2024-02-04T07:08:42;7.60;99.90
6110;DHT22;3085;49.444;11.054;2024-02-04T07:11:08;7.70;99.90
6110;DHT22;3085;49.444;11.054;2024-02-04T07:13:35;7.70;99.90
6110;DHT22;3085;49.444;11.054;2024-02-04T07:16:02;7.70;99.90
6110;DHT22;3085;49.444;11.054;2024-02-04T07:18:30;7.70;99.90
6110;DHT22;3085;49.444;11.054;2024-02-04T07:20:57;8.40;99.90
6110;DHT22;3085;49.444;11.054;2024-02-04T07:23:24;7.70;99.90
6110;DHT22;3085;49.444;11.054;2024-02-04T07:25:50;7.70;99.90
6110;DHT22;3085;49.444;11.054;2024-02-04T07:28:17;7.70;99.90
6110;DHT22;3085;49.444;11.054;2024-02-04T07:30:43;7.70;99.90
6110;DHT22;3085;49.444;11.054;2024-02-04T07:33:10;7.80;99.90
6110;DHT22;3085;49.444;11.054;2024-02-04T07:35:38;7.80;99.90
6110;DHT22;3085;49.444;11.054;2024-02-04T07:38:04;7.80;99.90
6110;DHT22;3085;49.444;11.054;2024-02-04T07:40:31;7.80;99.90
6110;DHT22;3085;49.444;11.054;2024-02-04T07:42:58;7.20;99.90
6110;DHT22;3085;49.444;11.054;2024-02-04T07:45:24;7.90;99.90
6110;DHT22;3085;49.444;11.054;2024-02-04T07:47:51;7.90;99.90
6110;DHT22;3085;49.444;11.054;2024-02-04T07:50:18;7.90;99.90
6110;DHT22;3085;49.444;11.054;2024-02-04T07:52:46;7.90;99.90
6110;DHT22;3085;49.444;11.054;2024-02-04T07:55:13;7.90;99.90
6110;DHT22;3085;49.444;11.054;2024-02-04T07:57:40;7.90;99.90
6110;DHT22;3085;49.444;11.054;2024-02-04T08:00:07;7.90;99.90
6110;DHT22;3085;49.444;11.054;2024-02-04T08:02:35;7.90;99.90
6110;DHT22;3085;49.444;11.054;2024-02-04T08:05:02;7.90;99.90
6110;DHT22;3085;49.444;11.054;2024-02-04T08:07:29;8.00;99.90
6110;DHT22;3085;49.444;11.054;2024-02-04T08:09:57;8.00;99.90
6110;DHT22;3085;49.444;11.054;2024-02-04T08:12:24;8.00;99.90
6110;DHT22;3085;49.444;11.054;2024-02-04T08:14:50;8.00;99.90
6110;DHT22;3085;49.444;11.054;2024-02-04T08:17:17;8.00;99.90
6110;DHT22;3085;49.444;11.054;2024-02-04T08:19:44;8.10;99.90
6110;DHT22;3085;49.444;11.054;2024-02-04T08:22:10;8.10;99.90
6110;DHT22;3085;49.444;11.054;2024-02-04T08:24:37;8.10;99.90
6110;DHT22;3085;49.444;11.054;2024-02-04T08:27:05;8.10;99.90
6110;DHT22;3085;49.444;11.054;2024-02-04T08:29:32;8.10;99.90
6110;DHT22;3085;49.444;11.054;2024-02-04T08:31:59;8.10;99.90
6110;DHT22;3085;49.444;11.054;2024-02-04T08:34:25;8.20;99.90
6110;DHT22;3085;49.444;11.054;2024-02-04T08:36:52;8.20;99.90
6110;DHT22;3085;49.444;11.054;2024-02-04T08:39:21;8.20;99.90
6110;DHT22;3085;49.444;11.054;2024-02-04T08:41:48;8.20;99.90
6110;DHT22;3085;49.444;11.054;2024-02-04T08:44:16;8.20;99.90
6110;DHT22;3085;49.444;11.054;2024-02-04T08:46:42;8.20;99.90
6110;DHT22;3085;49.444;11.054;2024-02-04T08:49:09;8.20;99.90
6110;DHT22;3085;49.444;11.054;2024-02-04T08:51:36;8.20;99.90
6110;DHT22;3085;49.444;11.054;2024-02-04T08:54:03;8.20;99.90
6110;DHT22;3085;49.444;11.054;2024-02-04T08:56:29;8.20;99.90
6110;DHT22;3085;49.444;11.054;2024-02-04T08:58:56;8.20;99.90
6110;DHT22;3085;49.444;11.054;2024-02-04T09:01:24;8.30;99.90
6110;DHT22;3085;49.444;11.054;2024-02-04T09:03:50;8.20;99.90
6110;DHT22;3085;49.444;11.054;2024-02-04T09:06:17;8.20;99.90
6110;DHT22;3085;49.444;11.054;2024-02-04T09:08:44;8.30;99.90
6110;DHT22;3085;49.444;11.054;2024-02-04T09:11:10;8.30;99.90
6110;DHT22;3085;49.444;11.054;2024-02-04T09:13:44;8.30;99.90
6110;DHT22;3085;49.444;11.054;2024-02-04T09:16:10;8.30;99.90
6110;DHT22;3085;49.444;11.054;2024-02-04T09:18:38;8.30;99.90
6110;DHT22;3085;49.444;11.054;2024-02-04T09:21:05;8.30;99.90
6110;DHT22;3085;49.444;11.054;2024-02-04T09:23:32;8.30;99.90
6110;DHT22;3085;49.444;11.054;2024-02-04T09:25:59;8.40;99.90
6110;DHT22;3085;49.444;11.054;2024-02-04T09:28:26;8.40;99.90
6110;DHT22;3085;49.444;11.054;2024-02-04T09:30:52;8.40;99.90
6110;DHT22;3085;49.444;11.054;2024-02-04T09:33:19;8.40;99.90
6110;DHT22;3085;49.444;11.054;2024-02-04T09:35:47;8.40;99.90
6110;DHT22;3085;49.444;11.054;2024-02-04T09:38:14;8.40;99.90
6110;DHT22;3085;49.444;11.054;2024-02-04T09:40:41;8.40;99.90
6110;DHT22;3085;49.444;11.054;2024-02-04T09:43:08;8.40;99.90
6110;DHT22;3085;49.444;11.054;2024-02-04T09:45:35;8.50;99.90
6110;DHT22;3085;49.444;11.054;2024-02-04T09:48:03;8.50;99.90
6110;DHT22;3085;49.444;11.054;2024-02-04T09:50:30;8.50;99.90
6110;DHT22;3085;49.444;11.054;2024-02-04T09:52:59;8.50;99.90
6110;DHT22;3085;49.444;11.054;2024-02-04T09:55:27;8.50;99.90
6110;DHT22;3085;49.444;11.054;2024-02-04T09:57:55;8.60;99.90
6110;DHT22;3085;49.444;11.054;2024-02-04T10:00:22;8.60;99.90
6110;DHT22;3085;49.444;11.054;2024-02-04T10:02:49;8.60;99.90
6110;DHT22;3085;49.444;11.054;2024-02-04T10:05:16;8.60;99.90
6110;DHT22;3085;49.444;11.054;2024-02-04T10:07:43;8.60;99.90
6110;DHT22;3085;49.444;11.054;2024-02-04T10:10:11;8.70;99.90
6110;DHT22;3085;49.444;11.054;2024-02-04T10:12:38;8.70;99.90
6110;DHT22;3085;49.444;11.054;2024-02-04T10:15:07;8.70;99.90
6110;DHT22;3085;49.444;11.054;2024-02-04T10:17:34;8.70;99.90
6110;DHT22;3085;49.444;11.054;2024-02-04T10:20:00;8.90;99.90
6110;DHT22;3085;49.444;11.054;2024-02-04T10:22:28;8.80;99.90
6110;DHT22;3085;49.444;11.054;2024-02-04T10:25:05;8.80;99.90
6110;DHT22;3085;49.444;11.054;2024-02-04T10:27:33;8.80;99.90
6110;DHT22;3085;49.444;11.054;2024-02-04T10:30:00;8.80;99.90
6110;DHT22;3085;49.444;11.054;2024-02-04T10:32:26;8.90;99.90
6110;DHT22;3085;49.444;11.054;2024-02-04T10:34:53;8.90;99.90
6110;DHT22;3085;49.444;11.054;2024-02-04T10:37:20;8.80;99.90
6110;DHT22;3085;49.444;11.054;2024-02-04T10:39:47;8.90;99.90
6110;DHT22;3085;49.444;11.054;2024-02-04T10:42:15;8.90;99.90
6110;DHT22;3085;49.444;11.054;2024-02-04T10:44:46;8.90;99.90
6110;DHT22;3085;49.444;11.054;2024-02-04T10:47:17;9.00;99.90
6110;DHT22;3085;49.444;11.054;2024-02-04T10:49:50;9.00;99.90
6110;DHT22;3085;49.444;11.054;2024-02-04T10:52:18;9.00;99.90
6110;DHT22;3085;49.444;11.054;2024-02-04T10:54:46;9.00;99.90
6110;DHT22;3085;49.444;11.054;2024-02-04T10:57:19;9.00;99.90
6110;DHT22;3085;49.444;11.054;2024-02-04T10:59:48;9.00;99.90
6110;DHT22;3085;49.444;11.054;2024-02-04T11:02:15;8.90;99.90
6110;DHT22;3085;49.444;11.054;2024-02-04T11:04:43;9.00;99.90
6110;DHT22;3085;49.444;11.054;2024-02-04T11:07:10;9.00;99.90
6110;DHT22;3085;49.444;11.054;2024-02-04T11:09:39;9.00;99.90
6110;DHT22;3085;49.444;11.054;2024-02-04T11:12:10;9.00;99.90
6110;DHT22;3085;49.444;11.054;2024-02-04T11:14:38;9.20;99.90
6110;DHT22;3085;49.444;11.054;2024-02-04T11:17:34;9.00;99.90
6110;DHT22;3085;49.444;11.054;2024-02-04T11:20:18;9.00;99.90
6110;DHT22;3085;49.444;11.054;2024-02-04T11:23:02;9.10;99.90
6110;DHT22;3085;49.444;11.054;2024-02-04T11:25:42;9.10;99.90
6110;DHT22;3085;49.444;11.054;2024-02-04T11:28:11;9.10;99.90
6110;DHT22;3085;49.444;11.054;2024-02-04T11:30:38;9.10;99.90
6110;DHT22;3085;49.444;11.054;2024-02-04T11:33:06;9.10;99.90
6110;DHT22;3085;49.444;11.054;2024-02-04T11:35:33;9.10;99.90
6110;DHT22;3085;49.444;11.054;2024-02-04T11:38:00;9.10;99.90
6110;DHT22;3085;49.444;11.054;2024-02-04T11:40:30;9.10;99.90
6110;DHT22;3085;49.444;11.054;2024-02-04T11:43:04;9.10;99.90
6110;DHT22;3085;49.444;11.054;2024-02-04T11:45:31;9.10;99.90
6110;DHT22;3085;49.444;11.054;2024-02-04T11:48:00;9.20;99.90
6110;DHT22;3085;49.444;11.054;2024-02-04T11:50:29;9.20;99.90
6110;DHT22;3085;49.444;11.054;2024-02-04T11:53:03;9.20;99.90
6110;DHT22;3085;49.444;11.054;2024-02-04T11:55:31;9.20;99.90
6110;DHT22;3085;49.444;11.054;2024-02-04T11:57:59;9.30;99.90
6110;DHT22;3085;49.444;11.054;2024-02-04T12:00:26;9.30;99.90
6110;DHT22;3085;49.444;11.054;2024-02-04T12:03:00;9.30;99.90
6110;DHT22;3085;49.444;11.054;2024-02-04T12:05:30;9.30;99.90
6110;DHT22;3085;49.444;11.054;2024-02-04T12:07:57;9.30;99.90
6110;DHT22;3085;49.444;11.054;2024-02-04T12:10:24;9.40;99.90
6110;DHT22;3085;49.444;11.054;2024-02-04T12:12:52;9.40;99.90
6110;DHT22;3085;49.444;11.054;2024-02-04T12:15:20;9.40;99.90
6110;DHT22;3085;49.444;11.054;2024-02-04T12:17:47;9.60;99.90
6110;DHT22;3085;49.444;11.054;2024-02-04T12:20:13;9.60;99.90
6110;DHT22;3085;49.444;11.054;2024-02-04T12:22:41;9.50;99.90
6110;DHT22;3085;49.444;11.054;2024-02-04T12:25:08;9.40;99.90
6110;DHT22;3085;49.444;11.054;2024-02-04T12:27:35;9.40;99.90
6110;DHT22;3085;49.444;11.054;2024-02-04T12:30:03;9.40;99.90
6110;DHT22;3085;49.444;11.054;2024-02-04T12:32:30;9.40;99.90
6110;DHT22;3085;49.444;11.054;2024-02-04T12:34:57;9.30;99.90
6110;DHT22;3085;49.444;11.054;2024-02-04T12:37:24;9.30;99.90
6110;DHT22;3085;49.444;11.054;2024-02-04T12:39:53;9.30;99.90
6110;DHT22;3085;49.444;11.054;2024-02-04T12:42:20;9.30;99.90
6110;DHT22;3085;49.444;11.054;2024-02-04T12:44:47;9.30;99.90
6110;DHT22;3085;49.444;11.054;2024-02-04T12:47:18;9.30;99.90
6110;DHT22;3085;49.444;11.054;2024-02-04T12:49:45;9.30;99.90
6110;DHT22;3085;49.444;11.054;2024-02-04T12:52:12;9.30;99.90
6110;DHT22;3085;49.444;11.054;2024-02-04T12:54:42;9.30;99.90
6110;DHT22;3085;49.444;11.054;2024-02-04T12:57:10;9.40;99.90
6110;DHT22;3085;49.444;11.054;2024-02-04T12:59:47;9.40;99.90
6110;DHT22;3085;49.444;11.054;2024-02-04T13:02:14;9.40;99.90
6110;DHT22;3085;49.444;11.054;2024-02-04T13:04:41;9.40;99.90
6110;DHT22;3085;49.444;11.054;2024-02-04T13:07:09;9.40;99.90
6110;DHT22;3085;49.444;11.054;2024-02-04T13:09:37;9.40;99.90
6110;DHT22;3085;49.444;11.054;2024-02-04T13:12:04;9.30;99.90
6110;DHT22;3085;49.444;11.054;2024-02-04T13:14:32;9.30;99.90
6110;DHT22;3085;49.444;11.054;2024-02-04T13:16:58;9.30;99.90
6110;DHT22;3085;49.444;11.054;2024-02-04T13:19:32;9.30;99.90
6110;DHT22;3085;49.444;11.054;2024-02-04T13:21:58;9.30;99.90
6110;DHT22;3085;49.444;11.054;2024-02-04T13:24:25;9.40;99.90
6110;DHT22;3085;49.444;11.054;2024-02-04T13:26:52;9.40;99.90
6110;DHT22;3085;49.444;11.054;2024-02-04T13:29:18;9.40;99.90
6110;DHT22;3085;49.444;11.054;2024-02-04T13:31:46;9.40;99.90
6110;DHT22;3085;49.444;11.054;2024-02-04T13:34:13;9.40;99.90
6110;DHT22;3085;49.444;11.054;2024-02-04T13:36:40;9.40;99.90
6110;DHT22;3085;49.444;11.054;2024-02-04T13:39:06;9.40;99.90
6110;DHT22;3085;49.444;11.054;2024-02-04T13:41:33;9.50;99.90
6110;DHT22;3085;49.444;11.054;2024-02-04T13:44:01;9.60;99.90
6110;DHT22;3085;49.444;11.054;2024-02-04T13:46:28;9.60;99.90
6110;DHT22;3085;49.444;11.054;2024-02-04T13:48:56;9.60;99.90
6110;DHT22;3085;49.444;11.054;2024-02-04T13:51:22;9.60;99.90
6110;DHT22;3085;49.444;11.054;2024-02-04T13:53:49;9.60;99.90
6110;DHT22;3085;49.444;11.054;2024-02-04T13:56:16;9.50;99.90
6110;DHT22;3085;49.444;11.054;2024-02-04T13:58:44;9.50;99.90
6110;DHT22;3085;49.444;11.054;2024-02-04T14:01:11;9.50;99.90
6110;DHT22;3085;49.444;11.054;2024-02-04T14:03:38;9.50;99.90
6110;DHT22;3085;49.444;11.054;2024-02-04T14:06:06;9.50;99.90
6110;DHT22;3085;49.444;11.054;2024-02-04T14:08:33;9.50;99.90
6110;DHT22;3085;49.444;11.054;2024-02-04T14:11:00;9.50;99.90
6110;DHT22;3085;49.444;11.054;2024-02-04T14:13:27;9.40;99.90
6110;DHT22;3085;49.444;11.054;2024-02-04T14:15:54;9.40;99.90
6110;DHT22;3085;49.444;11.054;2024-02-04T14:18:20;9.40;99.90
6110;DHT22;3085;49.444;11.054;2024-02-04T14:20:47;9.30;99.90
6110;DHT22;3085;49.444;11.054;2024-02-04T14:23:15;9.30;99.90
6110;DHT22;3085;49.444;11.054;2024-02-04T14:25:42;9.30;99.90
6110;DHT22;3085;49.444;11.054;2024-02-04T14:28:08;9.30;99.90
6110;DHT22;3085;49.444;11.054;2024-02-04T14:30:35;9.30;99.90
6110;DHT22;3085;49.444;11.054;2024-02-04T14:33:02;9.30;99.90
6110;DHT22;3085;49.444;11.054;2024-02-04T14:35:29;9.30;99.90
6110;DHT22;3085;49.444;11.054;2024-02-04T14:37:56;9.30;99.90
6110;DHT22;3085;49.444;11.054;2024-02-04T14:40:24;9.30;99.90
6110;DHT22;3085;49.444;11.054;2024-02-04T14:42:50;9.30;99.90
6110;DHT22;3085;49.444;11.054;2024-02-04T14:45:17;9.20;99.90
6110;DHT22;3085;49.444;11.054;2024-02-04T14:47:44;9.20;99.90
6110;DHT22;3085;49.444;11.054;2024-02-04T14:50:11;9.20;99.90
6110;DHT22;3085;49.444;11.054;2024-02-04T14:52:38;9.20;99.90
6110;DHT22;3085;49.444;11.054;2024-02-04T14:55:05;9.30;99.90
6110;DHT22;3085;49.444;11.054;2024-02-04T14:57:34;9.20;99.90
6110;DHT22;3085;49.444;11.054;2024-02-04T15:00:01;9.20;99.90
6110;DHT22;3085;49.444;11.054;2024-02-04T15:02:28;9.20;99.90
6110;DHT22;3085;49.444;11.054;2024-02-04T15:04:55;9.20;99.90
6110;DHT22;3085;49.444;11.054;2024-02-04T15:07:22;9.20;99.90
6110;DHT22;3085;49.444;11.054;2024-02-04T15:09:48;9.10;99.90
6110;DHT22;3085;49.444;11.054;2024-02-04T15:12:19;9.20;99.90
6110;DHT22;3085;49.444;11.054;2024-02-04T15:14:48;9.20;99.90
6110;DHT22;3085;49.444;11.054;2024-02-04T15:17:15;9.20;99.90
6110;DHT22;3085;49.444;11.054;2024-02-04T15:19:42;9.20;99.90
6110;DHT22;3085;49.444;11.054;2024-02-04T15:22:09;9.20;99.90
6110;DHT22;3085;49.444;11.054;2024-02-04T15:24:37;9.20;99.90
6110;DHT22;3085;49.444;11.054;2024-02-04T15:27:05;8.90;99.90
6110;DHT22;3085;49.444;11.054;2024-02-04T15:29:34;9.10;99.90
6110;DHT22;3085;49.444;11.054;2024-02-04T15:32:03;9.20;99.90
6110;DHT22;3085;49.444;11.054;2024-02-04T15:34:31;9.20;99.90
6110;DHT22;3085;49.444;11.054;2024-02-04T15:36:58;9.10;99.90
6110;DHT22;3085;49.444;11.054;2024-02-04T15:39:25;9.00;99.90
6110;DHT22;3085;49.444;11.054;2024-02-04T15:41:52;9.00;99.90
6110;DHT22;3085;49.444;11.054;2024-02-04T15:44:18;9.00;99.90
6110;DHT22;3085;49.444;11.054;2024-02-04T15:46:47;9.00;99.90
6110;DHT22;3085;49.444;11.054;2024-02-04T15:49:16;9.00;99.90
6110;DHT22;3085;49.444;11.054;2024-02-04T15:51:44;9.00;99.90
6110;DHT22;3085;49.444;11.054;2024-02-04T15:54:12;9.00;99.90
6110;DHT22;3085;49.444;11.054;2024-02-04T15:56:42;9.00;99.90
6110;DHT22;3085;49.444;11.054;2024-02-04T15:59:09;9.00;99.90
6110;DHT22;3085;49.444;11.054;2024-02-04T16:01:37;9.00;99.90
6110;DHT22;3085;49.444;11.054;2024-02-04T16:04:08;9.00;99.90